METAR Data
IDs: Format: Raw Decoded Include TAF

Data at: 0145 UTC 24 Oct 2019

METAR for:KEOK (Keokuk Muni, IA, US)
Text:KEOK 240135Z AUTO 26006KT 10SM FEW085 10/08 A2992 RMK AO2
Temperature: 10.0°C ( 50°F)
Dewpoint: 8.0°C ( 46°F) [RH = 87%]
Pressure (altimeter):29.92 inches Hg (1013.3 mb)
Winds:from the W (260 degrees) at 7 MPH (6 knots; 3.1 m/s)
Visibility:10 or more sm (16+ km)
Ceiling:at least 12,000 feet AGL
Clouds: few clouds at 8500 feet AGL
QC Flag:automated observation with no human augmentation